logo
Search for airport 
image banner adimage banner adimage banner ad
image banner ad

YOBAN - Oban Station

Located in Waverley, Australia

ICAO - , IATA -

Data provided by Airmate  

General information

Coordinates: S21°14'6" E139°1'57"
Elevation is 918 feet MSL.
Magnetic variation is 6° East
View others Airports in Queensland

Operational data

Special qualification required
Current time UTC:
Current local time:
Weather at : YBMA - Mount Isa ( 79 km )
METAR: YBMA 271830Z AUTO 00000KT 9999 // NCD 15/04 Q1018 RF00.0/000.0
TAF: TAF YBMA 271715Z 2718/2806 VRB03KT CAVOK FM272300 07012KT CAVOK FM280300 11014KT CAVOK
View NOTAMs / SUP AIP / TFR affecting this airport [VIEW]
Communications frequencies: [VIEW]

Runways:

RWY identifierQFULength (ft)Width (ft)SurfaceLDA (ft)
24248°418073DIRT
0668°418073DIRT

Airport contact information

Address: Waverley Australia

Satellite view of YOBAN